Terminal Aerodrome Forecast
Issued by NWS Duluth, MN

Home | Current Version | Previous Version | Text Only | Print | Product List | Glossary On
Versions: 1 2 3 4 5 6 7 8 9 10 11 12 13 14 15 16 17 18 19 20 21 22 23 24 25 26 27 28 29 30 31 32
519
FTUS43 KDLH 172335
TAFDLH
TAF
KDLH 172335Z 1800/1824 21004KT P6SM SCT120
     FM180200 21008KT 4SM BR SCT008
      TEMPO 1803/1806 1 1/2SM BR BKN006
     FM180900 23008KT 6SM BR SCT010 WS015/24040KT
     FM181300 24010KT P6SM SCT100=

USA.gov is the U.S. government's official web portal to all federal, state and local government web resources and services.